createdAt,value
2018-12-12T00:00:53.818Z,95471.48
2018-12-12T00:03:21.926Z,95470.78
2018-12-12T00:05:50.061Z,95475.09
2018-12-12T00:08:18.152Z,95468.09
2018-12-12T00:10:46.285Z,95467.16
2018-12-12T00:13:14.336Z,95465.55
2018-12-12T00:15:42.503Z,95469.48
2018-12-12T00:18:10.731Z,95464.04
2018-12-12T00:20:38.774Z,95468.09
2018-12-12T00:23:06.955Z,95470.26
2018-12-12T00:25:34.985Z,95467.20
2018-12-12T00:28:03.060Z,95464.96
2018-12-12T00:30:31.094Z,95465.14
2018-12-12T00:32:59.243Z,95463.66
2018-12-12T00:35:27.298Z,95461.09
2018-12-12T00:37:55.370Z,95465.73
2018-12-12T00:40:23.427Z,95465.14
2018-12-12T00:42:51.478Z,95457.49
2018-12-12T00:45:19.518Z,95462.20
2018-12-12T00:47:47.604Z,95464.70
2018-12-12T00:50:15.649Z,95468.20
2018-12-12T00:52:43.681Z,95460.33
2018-12-12T00:55:11.880Z,95465.89
2018-12-12T00:57:40.051Z,95463.55
2018-12-12T01:00:08.747Z,95466.66
2018-12-12T01:02:36.911Z,95465.64
2018-12-12T01:05:05.120Z,95466.43
2018-12-12T01:07:33.206Z,95468.57
2018-12-12T01:10:01.257Z,95466.35
2018-12-12T01:12:29.299Z,95470.80
2018-12-12T01:14:57.321Z,95475.95
2018-12-12T01:17:25.422Z,95479.51
2018-12-12T01:19:53.455Z,95477.41
2018-12-12T01:22:21.501Z,95477.75
2018-12-12T01:24:49.580Z,95481.47
2018-12-12T01:27:17.855Z,95481.52
2018-12-12T01:29:46.021Z,95483.36
2018-12-12T01:32:14.158Z,95482.75
2018-12-12T01:34:42.260Z,95485.36
2018-12-12T01:37:10.386Z,95483.11
2018-12-12T01:39:38.741Z,95481.99
2018-12-12T01:42:06.778Z,95477.56
2018-12-12T01:44:34.815Z,95480.30
2018-12-12T01:47:02.833Z,95481.64
2018-12-12T01:49:30.943Z,95490.25
2018-12-12T01:51:58.965Z,95483.41
2018-12-12T01:54:27.005Z,95490.17
2018-12-12T01:56:55.033Z,95493.39
2018-12-12T01:59:23.099Z,95487.33
2018-12-12T02:01:51.196Z,95494.19
2018-12-12T02:04:19.235Z,95487.77
2018-12-12T02:06:47.278Z,95491.41
2018-12-12T02:09:15.380Z,95491.81
2018-12-12T02:11:43.436Z,95489.13
2018-12-12T02:14:11.446Z,95490.41
2018-12-12T02:16:39.578Z,95487.51
2018-12-12T02:19:07.976Z,95497.06
2018-12-12T02:21:36.056Z,95503.36
2018-12-12T02:24:04.261Z,95497.30
2018-12-12T02:26:32.401Z,95499.33
2018-12-12T02:29:00.437Z,95501.30
2018-12-12T02:31:28.551Z,95501.80
2018-12-12T02:33:56.603Z,95503.37
2018-12-12T02:36:24.764Z,95508.22
2018-12-12T02:38:52.888Z,95507.42
2018-12-12T02:41:21.007Z,95505.20
2018-12-12T02:43:49.041Z,95506.94
2018-12-12T02:46:17.070Z,95510.29
2018-12-12T02:48:45.184Z,95504.03
2018-12-12T02:53:54.851Z,95513.06
2018-12-12T02:56:22.925Z,95518.98
2018-12-12T02:58:51.022Z,95511.58
2018-12-12T03:01:19.152Z,95521.56
2018-12-12T03:03:47.207Z,95517.97
2018-12-12T03:06:15.318Z,95515.92
2018-12-12T03:08:43.465Z,95511.19
2018-12-12T03:11:13.498Z,95509.12
2018-12-12T03:13:41.599Z,95510.69
2018-12-12T03:16:09.804Z,95509.79
2018-12-12T03:18:37.840Z,95505.92
2018-12-12T03:21:05.905Z,95506.98
2018-12-12T03:23:33.965Z,95509.09
2018-12-12T03:26:02.382Z,95508.70
2018-12-12T03:28:30.517Z,95506.42
2018-12-12T03:30:58.549Z,95502.34
2018-12-12T03:33:26.586Z,95499.50
2018-12-12T03:35:54.642Z,95507.38
2018-12-12T03:38:22.989Z,95511.28
2018-12-12T03:40:51.223Z,95519.55
2018-12-12T03:43:19.334Z,95515.18
2018-12-12T03:45:47.453Z,95513.02
2018-12-12T03:48:15.649Z,95518.98
2018-12-12T03:50:43.725Z,95525.19
2018-12-12T03:53:11.815Z,95524.09
2018-12-12T03:55:39.910Z,95522.66
2018-12-12T03:58:07.996Z,95525.08
2018-12-12T04:03:29.123Z,95527.81
2018-12-12T04:05:57.171Z,95520.41
2018-12-12T04:08:25.617Z,95523.80
2018-12-12T04:10:53.753Z,95520.39
2018-12-12T04:13:21.794Z,95529.03
2018-12-12T04:15:49.934Z,95531.31
2018-12-12T04:18:18.206Z,95530.74
2018-12-12T04:20:46.335Z,95536.77
2018-12-12T04:23:14.378Z,95540.20
2018-12-12T04:25:42.516Z,95532.24
2018-12-12T04:28:10.629Z,95531.48
2018-12-12T04:30:38.690Z,95523.16
2018-12-12T04:33:06.824Z,95531.92
2018-12-12T04:35:36.362Z,95526.11
2018-12-12T04:38:04.436Z,95520.08
2018-12-12T04:40:32.553Z,95521.86
2018-12-12T04:43:00.654Z,95523.25
2018-12-12T04:45:28.766Z,95521.16
2018-12-12T04:47:56.822Z,95524.30
2018-12-12T04:50:24.929Z,95532.00
2018-12-12T04:52:52.999Z,95529.72
2018-12-12T04:55:21.061Z,95534.00
2018-12-12T04:57:49.163Z,95528.50
2018-12-12T05:00:17.539Z,95536.89
2018-12-12T05:02:46.251Z,95537.50
2018-12-12T05:05:14.424Z,95537.83
2018-12-12T05:07:42.477Z,95533.02
2018-12-12T05:10:10.599Z,95539.88
2018-12-12T05:12:38.735Z,95541.48
2018-12-12T05:15:06.888Z,95535.81
2018-12-12T05:17:34.926Z,95536.48
2018-12-12T05:20:03.146Z,95540.84
2018-12-12T05:22:31.279Z,95544.05
2018-12-12T05:24:59.421Z,95549.80
2018-12-12T05:27:27.484Z,95550.19
2018-12-12T05:29:55.773Z,95544.34
2018-12-12T05:32:23.812Z,95552.78
2018-12-12T05:34:51.945Z,95558.44
2018-12-12T05:37:20.058Z,95552.75
2018-12-12T05:39:48.123Z,95553.59
2018-12-12T05:42:16.190Z,95560.94
2018-12-12T05:44:44.298Z,95558.55
2018-12-12T05:47:12.380Z,95558.98
2018-12-12T05:49:40.551Z,95558.75
2018-12-12T05:52:08.635Z,95559.56
2018-12-12T05:54:36.674Z,95566.45
2018-12-12T05:57:04.758Z,95569.90
2018-12-12T05:59:32.822Z,95567.16
2018-12-12T06:02:01.115Z,95571.40
2018-12-12T06:04:29.142Z,95565.20
2018-12-12T06:06:57.207Z,95558.55
2018-12-12T06:09:25.302Z,95562.41
2018-12-12T06:11:53.393Z,95569.08
2018-12-12T06:14:21.506Z,95567.75
2018-12-12T06:16:49.706Z,95570.94
2018-12-12T06:19:17.841Z,95565.61
2018-12-12T06:21:45.995Z,95566.88
2018-12-12T06:24:14.073Z,95570.19
2018-12-12T06:26:42.150Z,95574.13
2018-12-12T06:29:10.242Z,95576.43
2018-12-12T06:31:38.316Z,95567.48
2018-12-12T06:34:06.401Z,95573.36
2018-12-12T06:36:34.594Z,95569.84
2018-12-12T06:39:02.843Z,95580.16
2018-12-12T06:41:30.927Z,95580.34
2018-12-12T06:43:58.984Z,95585.14
2018-12-12T06:46:27.156Z,95585.77
2018-12-12T06:48:55.330Z,95589.48
2018-12-12T06:51:23.429Z,95592.59
2018-12-12T06:53:51.478Z,95591.86
2018-12-12T06:56:19.633Z,95594.61
2018-12-12T06:58:47.759Z,95601.44
2018-12-12T07:03:56.751Z,95603.55
2018-12-12T07:06:24.808Z,95597.81
2018-12-12T07:08:52.898Z,95598.48
2018-12-12T07:11:20.960Z,95598.84
2018-12-12T07:13:49.049Z,95598.69
2018-12-12T07:18:58.704Z,95597.50
2018-12-12T07:21:26.767Z,95596.95
2018-12-12T07:23:54.855Z,95594.83
2018-12-12T07:26:22.977Z,95596.69
2018-12-12T07:28:51.268Z,95602.84
2018-12-12T07:31:19.413Z,95605.16
2018-12-12T07:33:47.495Z,95600.94
2018-12-12T07:36:15.561Z,95604.59
2018-12-12T07:38:43.589Z,95616.15
2018-12-12T07:41:11.691Z,95615.17
2018-12-12T07:43:39.829Z,95622.22
2018-12-12T07:46:07.979Z,95613.77
2018-12-12T07:48:36.030Z,95617.05
2018-12-12T07:51:04.217Z,95618.33
2018-12-12T07:53:32.368Z,95621.58
2018-12-12T07:56:00.427Z,95614.87
2018-12-12T07:58:28.539Z,95621.37
2018-12-12T08:00:56.584Z,95613.42
2018-12-12T08:03:24.758Z,95610.24
2018-12-12T08:05:52.943Z,95610.02
2018-12-12T08:08:21.076Z,95604.23
2018-12-12T08:10:49.318Z,95611.55
2018-12-12T08:13:17.467Z,95604.85
2018-12-12T08:15:45.542Z,95614.98
2018-12-12T08:18:13.667Z,95614.34
2018-12-12T08:20:41.716Z,95618.47
2018-12-12T08:23:10.065Z,95626.35
2018-12-12T08:25:38.760Z,95631.97
2018-12-12T08:28:07.120Z,95631.61
2018-12-12T08:30:35.197Z,95624.05
2018-12-12T08:33:03.282Z,95630.33
2018-12-12T08:35:31.339Z,95630.29
2018-12-12T08:37:59.486Z,95635.40
2018-12-12T08:40:27.586Z,95631.17
2018-12-12T08:42:55.754Z,95632.75
2018-12-12T08:45:23.922Z,95642.75
2018-12-12T08:47:52.057Z,95633.17
2018-12-12T08:50:20.198Z,95642.25
2018-12-12T08:52:48.519Z,95639.78
2018-12-12T08:55:17.825Z,95644.36
2018-12-12T08:57:46.136Z,95644.62
2018-12-12T09:00:14.257Z,95644.54
2018-12-12T09:02:42.398Z,95647.88
2018-12-12T09:05:10.565Z,95652.03
2018-12-12T09:10:16.635Z,95650.08
2018-12-12T09:12:44.940Z,95643.52
2018-12-12T09:15:13.006Z,95654.29
2018-12-12T09:17:41.121Z,95649.73
2018-12-12T09:20:09.312Z,95652.32
2018-12-12T09:22:37.577Z,95651.75
2018-12-12T09:25:06.246Z,95650.36
2018-12-12T09:27:34.390Z,95655.86
2018-12-12T09:30:02.552Z,95657.85
2018-12-12T09:32:31.329Z,95654.90
2018-12-12T09:34:59.412Z,95658.45
2018-12-12T09:37:27.575Z,95657.67
2018-12-12T09:39:56.652Z,95662.91
2018-12-12T09:42:24.830Z,95668.81
2018-12-12T09:44:52.964Z,95664.00
2018-12-12T09:47:21.286Z,95661.40
2018-12-12T09:49:49.430Z,95671.59
2018-12-12T09:52:17.562Z,95673.25
2018-12-12T09:54:45.653Z,95670.31
2018-12-12T09:57:13.694Z,95667.43
2018-12-12T09:59:41.936Z,95669.76
2018-12-12T10:02:10.090Z,95671.44
2018-12-12T10:04:38.190Z,95666.22
2018-12-12T10:07:06.237Z,95663.52
2018-12-12T10:09:34.511Z,95667.25
2018-12-12T10:12:02.664Z,95668.11
2018-12-12T10:14:32.832Z,95671.68
2018-12-12T10:17:00.886Z,95676.23
2018-12-12T10:22:07.087Z,95673.47
2018-12-12T10:24:35.319Z,95669.40
2018-12-12T10:27:03.433Z,95672.86
2018-12-12T10:29:31.564Z,95663.67
2018-12-12T10:31:59.942Z,95660.12
2018-12-12T10:34:28.010Z,95661.25
2018-12-12T10:36:56.043Z,95658.79
2018-12-12T10:39:24.084Z,95658.38
2018-12-12T10:41:52.167Z,95652.47
2018-12-12T10:44:20.248Z,95652.88
2018-12-12T10:46:48.369Z,95653.95
2018-12-12T10:49:16.409Z,95646.75
2018-12-12T10:51:44.553Z,95647.54
2018-12-12T10:54:12.669Z,95646.20
2018-12-12T10:56:40.731Z,95649.34
2018-12-12T10:59:08.789Z,95641.67
2018-12-12T11:01:42.157Z,95631.09
2018-12-12T11:04:10.220Z,95636.45
2018-12-12T11:06:38.403Z,95635.12
2018-12-12T11:09:07.038Z,95636.00
2018-12-12T11:11:35.118Z,95640.69
2018-12-12T11:14:03.253Z,95634.51
2018-12-12T11:16:31.377Z,95634.77
2018-12-12T11:18:59.507Z,95632.45
2018-12-12T11:21:27.606Z,95630.60
2018-12-12T11:23:55.728Z,95619.43
2018-12-12T11:26:23.856Z,95628.58
2018-12-12T11:28:52.206Z,95630.05
2018-12-12T11:31:20.252Z,95623.01
2018-12-12T11:33:50.577Z,95619.23
2018-12-12T11:36:18.388Z,95618.02
2018-12-12T11:38:46.619Z,95622.88
2018-12-12T11:41:14.805Z,95623.20
2018-12-12T11:43:42.890Z,95613.78
2018-12-12T11:46:10.950Z,95616.80
2018-12-12T11:48:39.027Z,95619.43
2018-12-12T11:51:07.118Z,95613.89
2018-12-12T11:53:35.186Z,95613.88
2018-12-12T11:56:03.542Z,95611.56
2018-12-12T11:58:31.623Z,95612.59
2018-12-12T12:00:59.670Z,95610.42
2018-12-12T12:03:27.724Z,95606.55
2018-12-12T12:05:55.837Z,95606.14
2018-12-12T12:08:23.874Z,95606.64
2018-12-12T12:10:51.980Z,95612.48
2018-12-12T12:13:20.172Z,95609.90
2018-12-12T12:15:48.213Z,95613.91
2018-12-12T12:18:16.301Z,95607.97
2018-12-12T12:20:44.376Z,95605.99
2018-12-12T12:23:12.653Z,95609.73
2018-12-12T12:25:40.728Z,95611.86
2018-12-12T12:28:10.155Z,95611.16
2018-12-12T12:30:38.266Z,95607.20
2018-12-12T12:33:06.316Z,95604.58
2018-12-12T12:35:34.383Z,95600.98
2018-12-12T12:38:02.670Z,95605.44
2018-12-12T12:40:30.751Z,95606.49
2018-12-12T12:42:58.850Z,95601.47
2018-12-12T12:45:27.069Z,95593.15
2018-12-12T12:47:55.110Z,95586.16
2018-12-12T12:50:23.163Z,95585.33
2018-12-12T12:52:51.200Z,95588.31
2018-12-12T12:55:19.266Z,95592.16
2018-12-12T12:57:47.323Z,95585.47
2018-12-12T13:00:15.422Z,95576.02
2018-12-12T13:02:43.539Z,95576.82
2018-12-12T13:05:11.648Z,95574.72
2018-12-12T13:07:39.713Z,95576.17
2018-12-12T13:12:49.803Z,95574.38
2018-12-12T13:15:18.164Z,95569.41
2018-12-12T13:17:46.288Z,95574.81
2018-12-12T13:20:14.402Z,95572.45
2018-12-12T13:22:42.525Z,95573.02
2018-12-12T13:25:10.679Z,95577.91
2018-12-12T13:27:38.910Z,95568.77
2018-12-12T13:30:07.149Z,95569.72
2018-12-12T13:32:35.202Z,95570.69
2018-12-12T13:35:03.407Z,95566.98
2018-12-12T13:37:31.466Z,95573.71
2018-12-12T13:39:59.649Z,95569.23
2018-12-12T13:42:27.774Z,95573.83
2018-12-12T13:44:55.854Z,95570.68
2018-12-12T13:47:23.920Z,95573.43
2018-12-12T13:49:52.029Z,95563.59
2018-12-12T13:52:20.107Z,95564.61
2018-12-12T13:54:48.229Z,95571.95
2018-12-12T13:57:16.373Z,95576.37
2018-12-12T13:59:44.778Z,95578.13
2018-12-12T14:02:12.860Z,95578.63
2018-12-12T14:04:41.034Z,95575.11
2018-12-12T14:07:09.154Z,95572.58
2018-12-12T14:09:37.314Z,95575.93
2018-12-12T14:12:05.654Z,95573.32
2018-12-12T14:14:33.795Z,95575.09
2018-12-12T14:19:43.560Z,95569.79
2018-12-12T14:22:11.753Z,95562.43
2018-12-12T14:24:39.870Z,95571.82
2018-12-12T14:27:08.087Z,95567.83
2018-12-12T14:29:36.152Z,95561.33
2018-12-12T14:32:04.523Z,95564.03
2018-12-12T14:34:32.676Z,95555.64
2018-12-12T14:37:00.829Z,95565.41
2018-12-12T14:39:28.933Z,95561.46
2018-12-12T14:41:56.977Z,95558.79
2018-12-12T14:44:25.050Z,95554.79
2018-12-12T14:46:53.127Z,95550.61
2018-12-12T14:49:21.165Z,95548.83
2018-12-12T14:51:49.722Z,95563.71
2018-12-12T14:54:17.809Z,95563.70
2018-12-12T14:56:45.877Z,95554.07
2018-12-12T14:59:13.981Z,95558.74
2018-12-12T15:01:42.059Z,95556.87
2018-12-12T15:06:51.577Z,95557.95
2018-12-12T15:09:20.815Z,95552.35
2018-12-12T15:11:49.045Z,95550.03
2018-12-12T15:14:17.135Z,95549.75
2018-12-12T15:16:45.265Z,95546.73
2018-12-12T15:19:13.368Z,95546.17
2018-12-12T15:21:41.458Z,95557.09
2018-12-12T15:24:09.534Z,95551.28
2018-12-12T15:26:37.645Z,95555.13
2018-12-12T15:29:05.744Z,95557.11
2018-12-12T15:31:33.901Z,95557.32
2018-12-12T15:34:01.970Z,95559.38
2018-12-12T15:36:30.049Z,95553.41
2018-12-12T15:38:58.274Z,95557.05
2018-12-12T15:41:26.366Z,95561.44
2018-12-12T15:43:54.420Z,95560.98
2018-12-12T15:46:22.561Z,95567.60
2018-12-12T15:48:50.629Z,95575.83
2018-12-12T15:51:18.733Z,95578.21
2018-12-12T15:53:46.810Z,95582.06
2018-12-12T15:56:14.890Z,95577.95
2018-12-12T15:58:42.950Z,95576.53
2018-12-12T16:01:11.045Z,95580.07
2018-12-12T16:03:39.197Z,95583.25
2018-12-12T16:06:07.402Z,95582.35
2018-12-12T16:08:35.442Z,95581.20
2018-12-12T16:11:08.176Z,95579.50
2018-12-12T16:13:33.579Z,95581.23
2018-12-12T16:16:01.700Z,95575.58
2018-12-12T16:18:29.761Z,95581.45
2018-12-12T16:20:57.878Z,95583.88
2018-12-12T16:23:25.922Z,95588.74
2018-12-12T16:25:54.056Z,95584.26
2018-12-12T16:28:22.183Z,95580.92
2018-12-12T16:30:50.278Z,95584.42
2018-12-12T16:33:18.399Z,95581.09
2018-12-12T16:35:46.463Z,95580.72
2018-12-12T16:38:14.792Z,95578.43
2018-12-12T16:40:44.391Z,95573.16
2018-12-12T16:43:12.596Z,95580.12
2018-12-12T16:45:40.914Z,95578.30
2018-12-12T16:48:09.049Z,95575.53
2018-12-12T16:50:37.192Z,95564.16
2018-12-12T16:53:05.479Z,95568.39
2018-12-12T16:55:33.525Z,95568.17
2018-12-12T16:58:01.596Z,95562.98
2018-12-12T17:00:29.646Z,95565.06
2018-12-12T17:02:57.898Z,95569.84
2018-12-12T17:05:26.020Z,95576.81
2018-12-12T17:07:54.179Z,95570.02
2018-12-12T17:10:22.233Z,95569.52
2018-12-12T17:12:50.329Z,95570.57
2018-12-12T17:15:18.423Z,95572.89
2018-12-12T17:17:46.519Z,95578.50
2018-12-12T17:20:14.615Z,95568.80
2018-12-12T17:22:42.668Z,95569.14
2018-12-12T17:25:10.834Z,95568.61
2018-12-12T17:27:38.977Z,95571.13
2018-12-12T17:30:08.082Z,95567.80
2018-12-12T17:32:36.158Z,95569.09
2018-12-12T17:35:08.766Z,95560.32
2018-12-12T17:37:35.159Z,95557.89
2018-12-12T17:40:03.302Z,95559.61
2018-12-12T17:42:31.374Z,95562.03
2018-12-12T17:44:59.455Z,95561.41
2018-12-12T17:47:27.533Z,95564.69
2018-12-12T17:49:55.710Z,95563.42
2018-12-12T17:52:23.845Z,95558.17
2018-12-12T17:54:51.926Z,95555.22
2018-12-12T17:57:20.038Z,95544.48
2018-12-12T17:59:48.497Z,95550.28
2018-12-12T18:02:16.695Z,95550.00
2018-12-12T18:04:44.724Z,95555.09
2018-12-12T18:07:12.811Z,95548.98
2018-12-12T18:09:40.881Z,95548.20
2018-12-12T18:12:09.174Z,95543.80
2018-12-12T18:14:37.309Z,95552.91
2018-12-12T18:17:05.483Z,95552.08
2018-12-12T18:19:33.580Z,95553.59
2018-12-12T18:22:01.661Z,95556.77
2018-12-12T18:24:29.769Z,95548.95
2018-12-12T18:29:39.515Z,95545.39
2018-12-12T18:32:07.735Z,95540.95
2018-12-12T18:34:36.167Z,95548.21
2018-12-12T18:37:04.334Z,95544.64
2018-12-12T18:39:32.511Z,95538.11
2018-12-12T18:42:00.656Z,95547.70
2018-12-12T18:44:28.779Z,95542.48
2018-12-12T18:46:56.866Z,95536.98
2018-12-12T18:49:24.971Z,95549.84
2018-12-12T18:51:53.117Z,95544.75
2018-12-12T18:54:21.172Z,95552.36
2018-12-12T18:56:49.329Z,95551.41
2018-12-12T18:59:17.444Z,95555.20
2018-12-12T19:01:45.662Z,95551.94
2018-12-12T19:04:13.766Z,95543.53
2018-12-12T19:06:41.824Z,95545.86
2018-12-12T19:09:09.882Z,95547.05
2018-12-12T19:11:44.166Z,95559.52
2018-12-12T19:14:08.110Z,95558.23
2018-12-12T19:16:36.186Z,95547.89
2018-12-12T19:19:04.326Z,95551.47
2018-12-12T19:21:32.402Z,95558.78
2018-12-12T19:24:00.493Z,95548.80
2018-12-12T19:26:28.543Z,95544.03
2018-12-12T19:28:56.693Z,95550.47
2018-12-12T19:31:24.754Z,95549.50
2018-12-12T19:33:52.829Z,95543.97
2018-12-12T19:36:20.890Z,95543.98
2018-12-12T19:38:49.007Z,95544.98
2018-12-12T19:41:17.093Z,95538.06
2018-12-12T19:43:45.192Z,95542.17
2018-12-12T19:46:13.316Z,95540.41
2018-12-12T19:48:41.423Z,95542.56
2018-12-12T19:51:09.529Z,95540.31
2018-12-12T19:53:37.560Z,95537.71
2018-12-12T19:56:05.693Z,95537.69
2018-12-12T19:58:33.767Z,95536.87
2018-12-12T20:01:01.843Z,95531.97
2018-12-12T20:03:29.974Z,95530.50
2018-12-12T20:05:58.042Z,95534.94
2018-12-12T20:08:26.257Z,95533.70
2018-12-12T20:10:54.400Z,95533.02
2018-12-12T20:13:22.438Z,95536.00
2018-12-12T20:15:50.583Z,95531.54
2018-12-12T20:18:18.634Z,95530.03
2018-12-12T20:20:46.970Z,95529.11
2018-12-12T20:23:15.115Z,95520.05
2018-12-12T20:25:43.183Z,95528.29
2018-12-12T20:28:11.242Z,95520.55
2018-12-12T20:30:39.320Z,95520.95
2018-12-12T20:33:07.468Z,95523.41
2018-12-12T20:35:35.522Z,95520.30
2018-12-12T20:38:03.594Z,95517.39
2018-12-12T20:40:31.751Z,95515.14
2018-12-12T20:43:00.415Z,95513.42
2018-12-12T20:45:28.478Z,95507.95
2018-12-12T20:47:56.958Z,95507.55
2018-12-12T20:50:25.004Z,95516.46
2018-12-12T20:52:53.036Z,95521.25
2018-12-12T20:55:21.100Z,95516.69
2018-12-12T20:57:49.466Z,95518.97
2018-12-12T21:00:17.619Z,95525.86
2018-12-12T21:02:45.740Z,95516.94
2018-12-12T21:05:13.796Z,95523.03
2018-12-12T21:07:42.480Z,95519.78
2018-12-12T21:10:10.666Z,95510.84
2018-12-12T21:12:38.736Z,95518.66
2018-12-12T21:15:08.621Z,95515.41
2018-12-12T21:17:36.898Z,95519.89
2018-12-12T21:20:06.474Z,95519.64
2018-12-12T21:22:34.547Z,95507.45
2018-12-12T21:25:02.733Z,95511.71
2018-12-12T21:27:30.803Z,95509.53
2018-12-12T21:29:58.977Z,95504.23
2018-12-12T21:32:27.045Z,95504.64
2018-12-12T21:34:55.204Z,95506.33
2018-12-12T21:37:23.362Z,95505.20
2018-12-12T21:39:51.596Z,95499.01
2018-12-12T21:42:20.022Z,95500.73
2018-12-12T21:44:48.191Z,95506.83
2018-12-12T21:47:16.557Z,95497.36
2018-12-12T21:49:44.622Z,95501.91
2018-12-12T21:52:12.744Z,95498.42
2018-12-12T21:54:40.781Z,95500.81
2018-12-12T21:57:08.856Z,95500.11
2018-12-12T21:59:36.915Z,95499.21
2018-12-12T22:02:06.305Z,95502.39
2018-12-12T22:04:37.287Z,95504.03
2018-12-12T22:07:04.805Z,95499.63
2018-12-12T22:09:32.886Z,95499.28
2018-12-12T22:12:01.005Z,95499.11
2018-12-12T22:14:29.067Z,95498.82
2018-12-12T22:16:57.238Z,95494.92
2018-12-12T22:19:25.339Z,95493.86
2018-12-12T22:21:53.402Z,95496.06
2018-12-12T22:24:22.153Z,95501.42
2018-12-12T22:26:51.398Z,95497.73
2018-12-12T22:29:19.775Z,95500.52
2018-12-12T22:31:47.832Z,95500.89
2018-12-12T22:34:15.923Z,95500.81
2018-12-12T22:36:44.006Z,95497.83
2018-12-12T22:39:12.163Z,95497.00
2018-12-12T22:41:40.279Z,95498.42
2018-12-12T22:44:08.535Z,95495.17
2018-12-12T22:46:36.572Z,95493.12
2018-12-12T22:49:04.701Z,95494.58
2018-12-12T22:51:32.769Z,95496.66
2018-12-12T22:54:00.910Z,95497.67
2018-12-12T22:56:28.997Z,95496.72
2018-12-12T22:58:57.887Z,95496.02
2018-12-12T23:01:26.002Z,95495.69
2018-12-12T23:03:54.051Z,95497.39
2018-12-12T23:06:22.253Z,95498.70
2018-12-12T23:08:50.311Z,95490.38
2018-12-12T23:11:18.381Z,95489.93
2018-12-12T23:13:46.506Z,95480.34
2018-12-12T23:16:14.862Z,95481.44
2018-12-12T23:18:42.904Z,95474.21
2018-12-12T23:21:10.945Z,95477.08
2018-12-12T23:23:38.996Z,95476.89
2018-12-12T23:26:07.034Z,95473.02
2018-12-12T23:28:35.087Z,95473.73
2018-12-12T23:31:03.142Z,95479.38
2018-12-12T23:33:31.273Z,95471.55
2018-12-12T23:35:59.381Z,95474.72
2018-12-12T23:38:27.941Z,95469.81
2018-12-12T23:40:56.033Z,95472.47
2018-12-12T23:43:24.146Z,95470.09
2018-12-12T23:45:52.210Z,95467.82
2018-12-12T23:48:20.291Z,95464.64
2018-12-12T23:50:48.313Z,95455.67
2018-12-12T23:53:16.349Z,95458.44
2018-12-12T23:55:44.406Z,95450.34
2018-12-12T23:58:12.462Z,95455.59
